createdAt,value
2023-05-07T00:00:22.766Z,101688.51
2023-05-07T00:02:52.700Z,101688.51
2023-05-07T00:05:22.384Z,101692.10
2023-05-07T00:07:53.484Z,101689.29
2023-05-07T00:10:23.289Z,101689.06
2023-05-07T00:12:53.280Z,101689.77
2023-05-07T00:15:23.209Z,101688.67
2023-05-07T00:17:53.387Z,101694.32
2023-05-07T00:20:22.978Z,101692.02
2023-05-07T00:22:52.794Z,101693.81
2023-05-07T00:25:22.591Z,101687.71
2023-05-07T00:27:52.788Z,101676.12
2023-05-07T00:30:22.662Z,101676.12
2023-05-07T00:32:52.480Z,101674.52
2023-05-07T00:35:22.319Z,101672.81
2023-05-07T00:37:52.248Z,101666.31
2023-05-07T00:40:22.107Z,101667.55
2023-05-07T00:42:53.617Z,101663.96
2023-05-07T00:45:23.320Z,101654.25
2023-05-07T00:47:53.185Z,101657.09
2023-05-07T00:50:23.072Z,101663.49
2023-05-07T00:52:53.140Z,101665.44
2023-05-07T00:55:23.953Z,101666.47
2023-05-07T00:57:53.929Z,101663.09
2023-05-07T01:00:23.589Z,101655.94
2023-05-07T01:02:54.283Z,101660.06
2023-05-07T01:05:27.088Z,101657.16
2023-05-07T01:07:58.781Z,101659.00
2023-05-07T01:10:31.519Z,101653.25
2023-05-07T01:13:01.507Z,101650.72
2023-05-07T01:15:31.555Z,101650.00
2023-05-07T01:18:02.086Z,101650.30
2023-05-07T01:20:33.365Z,101642.83
2023-05-07T01:23:05.028Z,101650.78
2023-05-07T01:25:35.022Z,101642.55
2023-05-07T01:28:07.408Z,101645.39
2023-05-07T01:30:39.938Z,101641.80
2023-05-07T01:33:16.472Z,101633.09
2023-05-07T01:35:49.268Z,101644.63
2023-05-07T01:38:19.626Z,101644.63
2023-05-07T01:40:49.956Z,101648.28
2023-05-07T01:43:20.960Z,101655.63
2023-05-07T01:45:51.539Z,101651.08
2023-05-07T01:48:21.426Z,101645.98
2023-05-07T01:50:52.217Z,101650.11
2023-05-07T01:53:21.795Z,101649.52
2023-05-07T01:55:51.395Z,101649.72
2023-05-07T01:58:22.850Z,101644.94
2023-05-07T02:00:52.819Z,101643.05
2023-05-07T02:03:22.769Z,101640.81
2023-05-07T02:05:54.303Z,101636.21
2023-05-07T02:08:28.464Z,101634.92
2023-05-07T02:10:58.893Z,101633.57
2023-05-07T02:13:31.716Z,101630.09
2023-05-07T02:16:01.524Z,101630.94
2023-05-07T02:18:32.706Z,101624.88
2023-05-07T02:21:02.778Z,101622.46
2023-05-07T02:23:32.650Z,101624.64
2023-05-07T02:26:02.520Z,101627.77
2023-05-07T02:28:32.113Z,101627.77
2023-05-07T02:31:05.467Z,101633.21
2023-05-07T02:33:36.243Z,101628.33
2023-05-07T02:36:11.701Z,101627.91
2023-05-07T02:38:49.066Z,101625.21
2023-05-07T02:41:18.878Z,101631.72
2023-05-07T02:43:48.945Z,101624.19
2023-05-07T02:46:18.888Z,101623.58
2023-05-07T02:48:50.493Z,101626.39
2023-05-07T02:51:26.170Z,101636.30
2023-05-07T02:53:57.130Z,101639.02
2023-05-07T02:56:28.839Z,101635.16
2023-05-07T02:58:58.957Z,101638.34
2023-05-07T03:01:30.827Z,101638.77
2023-05-07T03:04:04.906Z,101644.05
2023-05-07T03:06:34.798Z,101643.50
2023-05-07T03:09:05.246Z,101640.75
2023-05-07T03:11:36.504Z,101634.35
2023-05-07T03:14:07.522Z,101635.23
2023-05-07T03:16:37.481Z,101636.98
2023-05-07T03:19:07.420Z,101638.59
2023-05-07T03:21:37.279Z,101644.17
2023-05-07T03:24:09.168Z,101633.74
2023-05-07T03:26:39.058Z,101633.74
2023-05-07T03:29:08.909Z,101636.09
2023-05-07T03:31:38.753Z,101634.70
2023-05-07T03:34:08.603Z,101640.19
2023-05-07T03:36:38.739Z,101634.64
2023-05-07T03:39:09.003Z,101635.83
2023-05-07T03:41:40.556Z,101639.38
2023-05-07T03:44:11.633Z,101639.38
2023-05-07T03:46:41.761Z,101641.96
2023-05-07T03:49:12.980Z,101636.55
2023-05-07T03:51:42.861Z,101633.41
2023-05-07T03:54:13.051Z,101632.40
2023-05-07T03:56:44.296Z,101637.39
2023-05-07T03:59:15.278Z,101636.26
2023-05-07T04:01:46.352Z,101639.12
2023-05-07T04:04:18.169Z,101638.41
2023-05-07T04:06:48.033Z,101634.11
2023-05-07T04:09:17.946Z,101637.98
2023-05-07T04:11:48.580Z,101637.73
2023-05-07T04:14:18.558Z,101639.97
2023-05-07T04:16:48.518Z,101646.80
2023-05-07T04:19:18.808Z,101639.95
2023-05-07T04:21:49.895Z,101644.38
2023-05-07T04:24:20.068Z,101643.09
2023-05-07T04:26:49.968Z,101641.77
2023-05-07T04:29:20.720Z,101645.70
2023-05-07T04:31:50.840Z,101635.91
2023-05-07T04:34:22.123Z,101642.89
2023-05-07T04:36:52.104Z,101648.20
2023-05-07T04:39:22.005Z,101647.42
2023-05-07T04:41:52.255Z,101638.80
2023-05-07T04:44:22.511Z,101652.90
2023-05-07T04:46:52.340Z,101652.90
2023-05-07T04:49:22.845Z,101650.11
2023-05-07T04:51:53.281Z,101653.67
2023-05-07T04:54:23.650Z,101658.19
2023-05-07T04:56:53.549Z,101655.48
2023-05-07T04:59:23.582Z,101659.28
2023-05-07T05:01:54.047Z,101661.52
2023-05-07T05:04:24.128Z,101661.04
2023-05-07T05:06:53.994Z,101661.04
2023-05-07T05:09:24.144Z,101670.15
2023-05-07T05:11:54.404Z,101670.15
2023-05-07T05:14:24.672Z,101676.88
2023-05-07T05:16:55.327Z,101673.09
2023-05-07T05:19:25.150Z,101672.94
2023-05-07T05:21:55.043Z,101671.91
2023-05-07T05:24:25.224Z,101680.05
2023-05-07T05:26:58.092Z,101678.80
2023-05-07T05:29:28.267Z,101678.22
2023-05-07T05:31:58.148Z,101676.80
2023-05-07T05:34:28.511Z,101678.80
2023-05-07T05:36:59.447Z,101682.39
2023-05-07T05:39:29.552Z,101681.78
2023-05-07T05:41:59.429Z,101688.36
2023-05-07T05:44:29.188Z,101694.45
2023-05-07T05:47:00.188Z,101686.84
2023-05-07T05:49:30.176Z,101695.81
2023-05-07T05:52:00.295Z,101697.68
2023-05-07T05:54:30.389Z,101700.55
2023-05-07T05:57:00.358Z,101696.62
2023-05-07T05:59:30.754Z,101702.49
2023-05-07T06:02:00.736Z,101700.38
2023-05-07T06:04:31.058Z,101693.84
2023-05-07T06:07:00.949Z,101698.03
2023-05-07T06:09:31.069Z,101700.25
2023-05-07T06:12:01.105Z,101696.23
2023-05-07T06:14:32.230Z,101704.33
2023-05-07T06:17:02.107Z,101698.31
2023-05-07T06:19:31.967Z,101700.78
2023-05-07T06:22:02.799Z,101704.99
2023-05-07T06:24:33.442Z,101703.05
2023-05-07T06:27:03.382Z,101708.05
2023-05-07T06:29:34.502Z,101709.97
2023-05-07T06:32:11.273Z,101709.97
2023-05-07T06:34:42.813Z,101705.98
2023-05-07T06:37:12.894Z,101708.58
2023-05-07T06:40:00.351Z,101706.64
2023-05-07T06:42:30.442Z,101707.58
2023-05-07T06:45:02.270Z,101707.66
2023-05-07T06:47:33.226Z,101707.21
2023-05-07T06:50:04.710Z,101710.41
2023-05-07T06:52:36.367Z,101713.54
2023-05-07T06:55:08.815Z,101717.97
2023-05-07T06:57:39.487Z,101721.34
2023-05-07T07:00:11.333Z,101717.94
2023-05-07T07:02:45.648Z,101716.10
2023-05-07T07:05:16.427Z,101714.19
2023-05-07T07:07:48.263Z,101721.59
2023-05-07T07:10:17.774Z,101717.14
2023-05-07T07:12:47.865Z,101725.16
2023-05-07T07:15:18.351Z,101731.62
2023-05-07T07:17:48.726Z,101728.39
2023-05-07T07:20:18.757Z,101725.17
2023-05-07T07:22:49.184Z,101730.14
2023-05-07T07:25:19.188Z,101730.35
2023-05-07T07:27:50.917Z,101727.05
2023-05-07T07:30:20.620Z,101732.06
2023-05-07T07:32:51.348Z,101731.58
2023-05-07T07:35:21.076Z,101725.27
2023-05-07T07:37:51.350Z,101726.84
2023-05-07T07:40:21.444Z,101726.81
2023-05-07T07:42:51.645Z,101738.05
2023-05-07T07:45:21.830Z,101740.75
2023-05-07T07:47:52.848Z,101734.78
2023-05-07T07:50:35.999Z,101747.09
2023-05-07T07:52:54.838Z,101745.68
2023-05-07T07:55:25.746Z,101748.70
2023-05-07T07:57:55.813Z,101743.16
2023-05-07T08:00:25.987Z,101741.92
2023-05-07T08:02:56.905Z,101747.09
2023-05-07T08:05:28.570Z,101746.78
2023-05-07T08:07:59.420Z,101743.97
2023-05-07T08:10:33.610Z,101744.51
2023-05-07T08:13:06.980Z,101745.67
2023-05-07T08:15:38.471Z,101746.47
2023-05-07T08:18:09.114Z,101742.40
2023-05-07T08:20:40.435Z,101740.09
2023-05-07T08:23:12.184Z,101746.70
2023-05-07T08:25:43.516Z,101743.69
2023-05-07T08:28:14.005Z,101743.34
2023-05-07T08:30:43.724Z,101745.53
2023-05-07T08:33:13.946Z,101745.53
2023-05-07T08:35:43.936Z,101740.42
2023-05-07T08:38:14.524Z,101746.09
2023-05-07T08:40:44.601Z,101744.12
2023-05-07T08:43:20.321Z,101744.56
2023-05-07T08:45:53.726Z,101747.71
2023-05-07T08:48:26.474Z,101746.14
2023-05-07T08:50:58.225Z,101741.42
2023-05-07T08:53:28.693Z,101727.77
2023-05-07T08:55:59.578Z,101727.77
2023-05-07T08:58:31.283Z,101733.95
2023-05-07T09:01:07.151Z,101733.95
2023-05-07T09:03:38.462Z,101752.21
2023-05-07T09:06:08.727Z,101746.87
2023-05-07T09:08:38.844Z,101748.56
2023-05-07T09:11:08.849Z,101749.61
2023-05-07T09:13:40.093Z,101749.84
2023-05-07T09:16:13.827Z,101749.84
2023-05-07T09:18:47.429Z,101747.81
2023-05-07T09:21:18.330Z,101747.81
2023-05-07T09:23:53.178Z,101745.30
2023-05-07T09:26:25.316Z,101747.48
2023-05-07T09:28:55.190Z,101746.36
2023-05-07T09:31:26.075Z,101745.49
2023-05-07T09:33:57.139Z,101741.89
2023-05-07T09:36:30.299Z,101724.20
2023-05-07T09:39:02.308Z,101724.20
2023-05-07T09:41:33.980Z,101743.88
2023-05-07T09:44:09.943Z,101741.72
2023-05-07T09:46:43.341Z,101723.85
2023-05-07T09:49:19.785Z,101723.85
2023-05-07T09:51:54.183Z,101742.81
2023-05-07T09:54:25.709Z,101732.95
2023-05-07T09:56:57.078Z,101739.34
2023-05-07T09:59:30.473Z,101736.24
2023-05-07T10:02:05.050Z,101743.50
2023-05-07T10:04:37.117Z,101743.80
2023-05-07T10:07:08.915Z,101742.69
2023-05-07T10:09:40.285Z,101743.50
2023-05-07T10:12:14.251Z,101735.56
2023-05-07T10:14:45.088Z,101740.16
2023-05-07T10:17:15.619Z,101739.52
2023-05-07T10:19:47.504Z,101737.48
2023-05-07T10:22:20.779Z,101736.27
2023-05-07T10:24:53.201Z,101736.27
2023-05-07T10:27:24.121Z,101736.51
2023-05-07T10:30:04.360Z,101731.76
2023-05-07T10:32:49.533Z,101731.52
2023-05-07T10:35:21.581Z,101726.74
2023-05-07T10:37:51.307Z,101731.80
2023-05-07T10:40:23.222Z,101730.58
2023-05-07T10:42:57.603Z,101733.77
2023-05-07T10:45:29.016Z,101733.50
2023-05-07T10:48:28.966Z,101733.50
2023-05-07T10:50:48.524Z,101739.64
2023-05-07T10:53:25.309Z,101739.31
2023-05-07T10:56:20.198Z,101723.45
2023-05-07T10:58:51.689Z,101723.45
2023-05-07T11:01:54.701Z,101741.54
2023-05-07T11:04:29.217Z,101748.81
2023-05-07T11:07:13.796Z,101743.58
2023-05-07T11:09:58.796Z,101744.20
2023-05-07T11:12:44.534Z,101740.72
2023-05-07T11:15:43.798Z,101737.23
2023-05-07T11:18:19.844Z,101736.16
2023-05-07T11:20:55.714Z,101735.20
2023-05-07T11:23:39.276Z,101730.92
2023-05-07T11:26:13.669Z,101735.20
2023-05-07T11:28:45.256Z,101734.86
2023-05-07T11:31:15.873Z,101741.13
2023-05-07T11:33:47.210Z,101738.64
2023-05-07T11:36:21.752Z,101735.14
2023-05-07T11:38:52.824Z,101744.63
2023-05-07T11:41:23.690Z,101743.73
2023-05-07T11:44:01.186Z,101739.98
2023-05-07T11:46:31.222Z,101742.95
2023-05-07T11:49:02.378Z,101738.18
2023-05-07T11:51:32.856Z,101741.70
2023-05-07T11:54:04.146Z,101741.99
2023-05-07T11:56:36.207Z,101741.44
2023-05-07T11:59:06.797Z,101745.16
2023-05-07T12:01:38.443Z,101745.60
2023-05-07T12:04:08.396Z,101751.44
2023-05-07T12:06:39.715Z,101750.59
2023-05-07T12:09:11.230Z,101747.73
2023-05-07T12:11:41.034Z,101739.42
2023-05-07T12:14:12.413Z,101745.39
2023-05-07T12:16:43.043Z,101742.41
2023-05-07T12:19:16.229Z,101746.22
2023-05-07T12:21:46.186Z,101746.57
2023-05-07T12:24:17.059Z,101746.57
2023-05-07T12:26:46.864Z,101748.70
2023-05-07T12:29:16.684Z,101752.22
2023-05-07T12:31:46.626Z,101752.22
2023-05-07T12:34:17.114Z,101751.98
2023-05-07T12:36:48.454Z,101753.72
2023-05-07T12:39:18.257Z,101748.43
2023-05-07T12:41:59.527Z,101753.99
2023-05-07T12:44:33.812Z,101752.18
2023-05-07T12:47:06.396Z,101737.66
2023-05-07T12:49:39.128Z,101737.66
2023-05-07T12:52:09.150Z,101762.69
2023-05-07T12:54:40.417Z,101755.07
2023-05-07T12:57:11.546Z,101755.25
2023-05-07T12:59:43.369Z,101768.14
2023-05-07T13:02:13.232Z,101760.22
2023-05-07T13:04:43.983Z,101763.00
2023-05-07T13:07:13.779Z,101763.00
2023-05-07T13:09:43.588Z,101771.31
2023-05-07T13:12:13.705Z,101771.31
2023-05-07T13:14:43.794Z,101775.39
2023-05-07T13:17:14.134Z,101775.52
2023-05-07T13:19:43.951Z,101775.11
2023-05-07T13:22:14.176Z,101774.10
2023-05-07T13:24:44.631Z,101778.49
2023-05-07T13:27:14.419Z,101780.52
2023-05-07T13:29:44.290Z,101779.73
2023-05-07T13:32:14.155Z,101782.69
2023-05-07T13:34:43.969Z,101780.95
2023-05-07T13:37:14.087Z,101757.80
2023-05-07T13:39:44.065Z,101757.80
2023-05-07T13:42:13.965Z,101765.70
2023-05-07T13:44:44.833Z,101777.53
2023-05-07T13:47:14.639Z,101776.20
2023-05-07T13:49:44.882Z,101777.44
2023-05-07T13:52:14.690Z,101779.77
2023-05-07T13:54:45.435Z,101780.26
2023-05-07T13:57:14.965Z,101784.91
2023-05-07T13:59:45.225Z,101784.91
2023-05-07T14:02:14.816Z,101778.22
2023-05-07T14:04:45.605Z,101785.40
2023-05-07T14:07:15.999Z,101775.23
2023-05-07T14:09:46.348Z,101778.58
2023-05-07T14:12:16.501Z,101777.47
2023-05-07T14:14:47.679Z,101773.09
2023-05-07T14:17:18.709Z,101781.84
2023-05-07T14:19:48.695Z,101780.73
2023-05-07T14:22:18.517Z,101787.27
2023-05-07T14:24:55.972Z,101790.26
2023-05-07T14:27:19.822Z,101813.21
2023-05-07T14:29:51.520Z,101803.37
2023-05-07T14:32:21.618Z,101818.62
2023-05-07T14:34:51.887Z,101825.16
2023-05-07T14:37:21.670Z,101828.73
2023-05-07T14:39:51.451Z,101843.34
2023-05-07T14:42:21.177Z,101835.58
2023-05-07T14:44:51.124Z,101849.00
2023-05-07T14:47:20.986Z,101849.48
2023-05-07T14:49:50.847Z,101844.69
2023-05-07T14:52:22.419Z,101852.03
2023-05-07T14:54:52.214Z,101843.87
2023-05-07T14:57:21.986Z,101852.27
2023-05-07T14:59:51.801Z,101857.08
2023-05-07T15:02:21.938Z,101850.49
2023-05-07T15:04:51.929Z,101854.64
2023-05-07T15:07:21.897Z,101854.32
2023-05-07T15:09:52.256Z,101854.39
2023-05-07T15:12:23.991Z,101855.83
2023-05-07T15:14:53.787Z,101857.89
2023-05-07T15:17:24.020Z,101856.08
2023-05-07T15:19:54.582Z,101858.41
2023-05-07T15:22:24.431Z,101863.39
2023-05-07T15:24:55.985Z,101863.06
2023-05-07T15:27:25.512Z,101865.22
2023-05-07T15:29:55.283Z,101867.72
2023-05-07T15:32:26.231Z,101869.44
2023-05-07T15:34:56.054Z,101875.80
2023-05-07T15:37:25.850Z,101866.21
2023-05-07T15:39:55.765Z,101867.35
2023-05-07T15:42:25.391Z,101867.33
2023-05-07T15:44:55.181Z,101872.53
2023-05-07T15:47:24.985Z,101867.30
2023-05-07T15:49:54.771Z,101869.84
2023-05-07T15:52:25.024Z,101869.17
2023-05-07T15:54:55.119Z,101868.77
2023-05-07T15:57:26.215Z,101870.55
2023-05-07T15:59:55.841Z,101869.91
2023-05-07T16:02:25.910Z,101871.93
2023-05-07T16:04:55.782Z,101875.00
2023-05-07T16:07:26.132Z,101870.23
2023-05-07T16:09:55.973Z,101869.69
2023-05-07T16:12:25.792Z,101866.91
2023-05-07T16:14:55.914Z,101865.20
2023-05-07T16:17:26.339Z,101868.61
2023-05-07T16:19:58.132Z,101868.50
2023-05-07T16:22:29.272Z,101867.07
2023-05-07T16:24:59.074Z,101874.44
2023-05-07T16:27:28.876Z,101872.90
2023-05-07T16:29:58.715Z,101883.19
2023-05-07T16:32:29.995Z,101887.39
2023-05-07T16:35:00.004Z,101890.08
2023-05-07T16:37:29.881Z,101895.16
2023-05-07T16:40:01.829Z,101896.98
2023-05-07T16:42:31.723Z,101904.05
2023-05-07T16:45:01.748Z,101904.05
2023-05-07T16:47:32.279Z,101892.47
2023-05-07T16:50:03.753Z,101892.47
2023-05-07T16:52:33.758Z,101910.06
2023-05-07T16:55:03.299Z,101916.31
2023-05-07T16:57:33.370Z,101916.31
2023-05-07T17:00:04.562Z,101929.45
2023-05-07T17:02:35.665Z,101939.42
2023-05-07T17:05:09.004Z,101925.55
2023-05-07T17:07:38.920Z,101933.12
2023-05-07T17:10:09.280Z,101933.12
2023-05-07T17:12:39.185Z,101936.36
2023-05-07T17:15:09.680Z,101931.31
2023-05-07T17:17:41.643Z,101930.53
2023-05-07T17:20:12.610Z,101929.77
2023-05-07T17:22:42.347Z,101932.05
2023-05-07T17:25:14.255Z,101930.05
2023-05-07T17:27:43.909Z,101926.09
2023-05-07T17:30:15.255Z,101922.91
2023-05-07T17:32:45.261Z,101928.31
2023-05-07T17:35:15.170Z,101922.38
2023-05-07T17:37:46.584Z,101922.45
2023-05-07T17:40:18.029Z,101924.70
2023-05-07T17:42:47.969Z,101920.86
2023-05-07T17:45:18.145Z,101929.50
2023-05-07T17:47:48.019Z,101930.23
2023-05-07T17:50:17.720Z,101944.95
2023-05-07T17:52:47.538Z,101941.72
2023-05-07T17:55:17.401Z,101937.50
2023-05-07T17:57:47.228Z,101947.80
2023-05-07T18:00:19.919Z,101947.92
2023-05-07T18:02:51.348Z,101942.92
2023-05-07T18:05:21.340Z,101943.39
2023-05-07T18:07:51.187Z,101947.15
2023-05-07T18:10:21.045Z,101932.88
2023-05-07T18:12:50.927Z,101932.88
2023-05-07T18:15:20.479Z,101948.79
2023-05-07T18:17:50.307Z,101950.48
2023-05-07T18:20:20.716Z,101950.30
2023-05-07T18:22:51.374Z,101952.06
2023-05-07T18:25:21.250Z,101955.39
2023-05-07T18:27:51.042Z,101942.11
2023-05-07T18:30:22.120Z,101951.05
2023-05-07T18:32:51.981Z,101936.05
2023-05-07T18:35:21.942Z,101944.03
2023-05-07T18:37:51.869Z,101945.25
2023-05-07T18:40:21.404Z,101949.09
2023-05-07T18:42:51.201Z,101955.33
2023-05-07T18:45:21.061Z,101954.14
2023-05-07T18:47:50.882Z,101955.16
2023-05-07T18:50:21.166Z,101950.71
2023-05-07T18:52:50.966Z,101952.94
2023-05-07T18:55:21.980Z,101954.69
2023-05-07T18:57:53.501Z,101958.93
2023-05-07T19:00:23.063Z,101966.13
2023-05-07T19:02:52.877Z,101957.38
2023-05-07T19:05:22.510Z,101961.28
2023-05-07T19:07:52.286Z,101956.89
2023-05-07T19:10:22.339Z,101953.70
2023-05-07T19:12:53.969Z,101965.27
2023-05-07T19:15:23.925Z,101956.53
2023-05-07T19:17:54.406Z,101960.09
2023-05-07T19:20:24.300Z,101955.32
2023-05-07T19:22:53.824Z,101957.20
2023-05-07T19:25:23.423Z,101967.50
2023-05-07T19:27:53.228Z,101968.89
2023-05-07T19:30:22.875Z,101967.12
2023-05-07T19:32:52.773Z,101974.27
2023-05-07T19:35:23.001Z,101981.42
2023-05-07T19:37:52.884Z,101983.59
2023-05-07T19:40:22.623Z,101989.74
2023-05-07T19:42:52.445Z,101989.49
2023-05-07T19:45:22.412Z,101996.25
2023-05-07T19:47:52.367Z,101985.23
2023-05-07T19:50:22.334Z,101985.23
2023-05-07T19:52:51.832Z,102003.81
2023-05-07T19:55:21.400Z,102009.63
2023-05-07T19:57:51.211Z,102015.19
2023-05-07T20:00:21.771Z,102017.29
2023-05-07T20:02:51.745Z,102026.31
2023-05-07T20:05:21.545Z,102019.48
2023-05-07T20:07:51.352Z,102018.91
2023-05-07T20:10:22.727Z,102019.95
2023-05-07T20:12:52.695Z,102019.22
2023-05-07T20:15:23.380Z,102023.97
2023-05-07T20:17:53.199Z,102023.63
2023-05-07T20:20:24.060Z,102025.47
2023-05-07T20:22:54.411Z,102026.13
2023-05-07T20:25:24.311Z,102029.45
2023-05-07T20:27:54.846Z,102033.42
2023-05-07T20:30:24.854Z,102037.50
2023-05-07T20:32:54.753Z,102038.95
2023-05-07T20:35:24.608Z,102038.81
2023-05-07T20:37:54.508Z,102046.47
2023-05-07T20:40:24.305Z,102047.53
2023-05-07T20:42:54.409Z,102045.36
2023-05-07T20:45:24.196Z,102043.33
2023-05-07T20:47:54.523Z,102042.52
2023-05-07T20:50:26.800Z,102033.63
2023-05-07T20:52:56.695Z,102040.72
2023-05-07T20:55:26.320Z,102046.66
2023-05-07T20:57:56.238Z,102044.55
2023-05-07T21:00:26.161Z,102045.98
2023-05-07T21:02:56.170Z,102048.92
2023-05-07T21:05:25.861Z,102048.16
2023-05-07T21:07:56.566Z,102054.33
2023-05-07T21:10:26.509Z,102050.84
2023-05-07T21:12:56.479Z,102049.78
2023-05-07T21:15:26.289Z,102048.99
2023-05-07T21:17:56.418Z,102049.61
2023-05-07T21:20:26.029Z,102056.28
2023-05-07T21:22:55.869Z,102057.73
2023-05-07T21:25:25.677Z,102058.76
2023-05-07T21:27:55.564Z,102056.78
2023-05-07T21:30:25.444Z,102067.73
2023-05-07T21:32:55.734Z,102071.04
2023-05-07T21:35:25.355Z,102069.38
2023-05-07T21:37:55.240Z,102072.91
2023-05-07T21:40:24.760Z,102077.44
2023-05-07T21:42:54.840Z,102069.69
2023-05-07T21:45:24.352Z,102071.57
2023-05-07T21:47:53.899Z,102070.91
2023-05-07T21:50:23.953Z,102060.59
2023-05-07T21:52:53.445Z,102062.93
2023-05-07T21:55:22.984Z,102071.43
2023-05-07T21:58:04.129Z,102066.22
2023-05-07T22:00:24.508Z,102066.30
2023-05-07T22:02:54.375Z,102075.50
2023-05-07T22:05:24.678Z,102078.07
2023-05-07T22:07:54.527Z,102080.72
2023-05-07T22:10:24.446Z,102077.70
2023-05-07T22:12:54.261Z,102074.13
2023-05-07T22:15:24.220Z,102076.19
2023-05-07T22:17:54.079Z,102072.41
2023-05-07T22:20:23.706Z,102074.06
2023-05-07T22:22:56.080Z,102072.36
2023-05-07T22:25:26.754Z,102073.59
2023-05-07T22:27:56.559Z,102081.20
2023-05-07T22:30:26.444Z,102082.09
2023-05-07T22:32:56.116Z,102083.42
2023-05-07T22:35:25.832Z,102081.92
2023-05-07T22:37:55.634Z,102081.92
2023-05-07T22:40:25.533Z,102082.34
2023-05-07T22:42:55.338Z,102082.89
2023-05-07T22:45:25.520Z,102082.62
2023-05-07T22:47:55.101Z,102083.20
2023-05-07T22:50:24.822Z,102092.80
2023-05-07T22:52:54.656Z,102092.55
2023-05-07T22:55:24.496Z,102091.23
2023-05-07T22:57:54.362Z,102088.23
2023-05-07T23:00:24.520Z,102098.44
2023-05-07T23:02:54.562Z,102093.92
2023-05-07T23:05:24.440Z,102091.68
2023-05-07T23:07:54.153Z,102095.20
2023-05-07T23:10:24.006Z,102094.45
2023-05-07T23:12:53.857Z,102090.30
2023-05-07T23:15:23.834Z,102100.73
2023-05-07T23:17:53.715Z,102099.17
2023-05-07T23:20:23.237Z,102098.95
2023-05-07T23:22:53.029Z,102097.46
2023-05-07T23:25:22.782Z,102099.09
2023-05-07T23:27:52.648Z,102087.46
2023-05-07T23:30:22.307Z,102087.46
2023-05-07T23:32:52.193Z,102107.89
2023-05-07T23:35:21.880Z,102107.89
2023-05-07T23:37:51.482Z,102103.50
2023-05-07T23:40:21.233Z,102109.08
2023-05-07T23:42:51.118Z,102102.58
2023-05-07T23:45:21.095Z,102095.34
2023-05-07T23:47:51.269Z,102096.00
2023-05-07T23:50:21.161Z,102105.94
2023-05-07T23:52:51.005Z,102106.39
2023-05-07T23:55:20.938Z,102101.16
2023-05-07T23:57:50.512Z,102101.27
